South Waterford, Maine
Current Conditions -  °F | °C
As of 5:54 AM on Friday 31 Oct 2014 (Local Time) from KIZG Reporting Station
Overcast Overcast  
Wind Chill: 30°   Ceiling: 100
Heat Index: 30°   Visibility: 10mi
Dew Point: 29°   Wind: 0mph
Humidity: 96%   Direction: NA
Pressure: 30.04"   Gusts: NA
Location:  44.17°N, 70.72°W
Report Text: KIZG 310954Z AUTO 00000KT 10SM BKN001 OVC048 M01/M02 A3004 RMK AO2 SLP176 T10111017 $
Loading
Personal Weather Stations






























Interactive Weather Map New forecast layout! Learn more

10-Day Weather Forecast

Advertisements
Track Severe Weather on mobile